Time;durP1;ratioP1;P1;durP2;ratioP2;P2;SDS_P1;SDS_P2;PMS_P1;PMS_P2;Temp;Humidity;BMP_temperature;BMP_pressure;BME280_temperature;BME280_humidity;BME280_pressure;Samples;Min_cycle;Max_cycle;Signal;HPM_P1;HPM_P2
2021/10/19 00:00:33;;;;;;;;;;;6.20;99.90;;;;;;5091926;28;19934;-73
2021/10/19 00:03:01;;;;;;;;;;;6.20;99.90;;;;;;5091443;28;20406;-73
2021/10/19 00:05:28;;;;;;;;;;;6.20;99.90;;;;;;5092059;28;19928;-73
2021/10/19 00:07:59;;;;;;;;;;;6.20;99.90;;;;;;5080437;28;19927;-73
2021/10/19 00:10:31;;;;;;;;;;;6.20;99.90;;;;;;5092238;28;19928;-73
2021/10/19 00:13:03;;;;;;;;;;;6.20;99.90;;;;;;5074633;28;19974;-73
2021/10/19 00:15:35;;;;;;;;;;;6.20;99.90;;;;;;5074063;28;20311;-73
2021/10/19 00:18:02;;;;;;;;;;;6.20;99.90;;;;;;5073095;28;19968;-73
2021/10/19 00:20:29;;;;;;;;;;;6.20;99.90;;;;;;5090657;28;19981;-73
2021/10/19 00:23:01;;;;;;;;;;;6.20;99.90;;;;;;5090534;28;19931;-73
2021/10/19 00:25:28;;;;;;;;;;;6.20;99.90;;;;;;5091249;28;19962;-73
2021/10/19 00:27:54;;;;;;;;;;;6.20;99.90;;;;;;5090765;28;19928;-73
2021/10/19 00:30:21;;;;;;;;;;;6.10;99.90;;;;;;5090494;28;19944;-73
2021/10/19 00:32:48;;;;;;;;;;;6.10;99.90;;;;;;5073810;28;19924;-73
2021/10/19 00:35:20;;;;;;;;;;;6.20;99.90;;;;;;5073908;28;19978;-73
2021/10/19 00:37:52;;;;;;;;;;;6.10;99.90;;;;;;5090317;28;19935;-73
2021/10/19 00:40:23;;;;;;;;;;;6.10;99.90;;;;;;5090385;28;19928;-73
2021/10/19 00:42:55;;;;;;;;;;;6.10;99.90;;;;;;5091740;28;19927;-73
2021/10/19 00:45:27;;;;;;;;;;;6.10;99.90;;;;;;5090954;28;20417;-73
2021/10/19 00:47:54;;;;;;;;;;;6.10;99.90;;;;;;5073627;28;20455;-73
2021/10/19 00:50:21;;;;;;;;;;;6.10;99.90;;;;;;5091127;28;19931;-73
2021/10/19 00:52:48;;;;;;;;;;;6.10;99.90;;;;;;5092325;28;20295;-73
2021/10/19 00:55:15;;;;;;;;;;;6.10;99.90;;;;;;5090548;28;20033;-73
2021/10/19 00:57:42;;;;;;;;;;;6.10;99.90;;;;;;5091247;28;20409;-73
2021/10/19 01:00:10;;;;;;;;;;;6.10;99.90;;;;;;5091987;28;19931;-73
2021/10/19 01:02:43;;;;;;;;;;;6.00;99.90;;;;;;5090419;28;19931;-74
2021/10/19 01:05:15;;;;;;;;;;;6.00;99.90;;;;;;5089762;28;20299;-73
2021/10/19 01:07:47;;;;;;;;;;;5.90;99.90;;;;;;5082563;28;20298;-73
2021/10/19 01:10:14;;;;;;;;;;;5.70;99.90;;;;;;5088742;28;19959;-73
2021/10/19 01:12:47;;;;;;;;;;;5.70;99.90;;;;;;5088293;28;19979;-73
2021/10/19 01:15:15;;;;;;;;;;;5.70;99.90;;;;;;5089454;28;19924;-73
2021/10/19 01:17:48;;;;;;;;;;;5.70;99.90;;;;;;5091452;28;20310;-73
2021/10/19 01:20:19;;;;;;;;;;;5.70;99.90;;;;;;5073339;28;19935;-73
2021/10/19 01:22:51;;;;;;;;;;;5.70;99.90;;;;;;5090264;28;19928;-73
2021/10/19 01:25:19;;;;;;;;;;;5.70;99.90;;;;;;5091290;28;19924;-73
2021/10/19 01:27:47;;;;;;;;;;;5.70;99.90;;;;;;5091543;28;19928;-73
2021/10/19 01:30:19;;;;;;;;;;;5.70;99.90;;;;;;5074329;28;19924;-73
2021/10/19 01:32:46;;;;;;;;;;;5.70;99.90;;;;;;5090677;28;19924;-73
2021/10/19 01:35:18;;;;;;;;;;;5.70;99.90;;;;;;5091007;28;19928;-73
2021/10/19 01:37:50;;;;;;;;;;;5.70;99.90;;;;;;5089931;28;19931;-73
2021/10/19 01:40:22;;;;;;;;;;;5.70;99.90;;;;;;5089754;28;19931;-73
2021/10/19 01:42:49;;;;;;;;;;;5.70;99.90;;;;;;5089704;28;19928;-73
2021/10/19 01:45:20;;;;;;;;;;;5.60;99.90;;;;;;5073315;28;19924;-73
2021/10/19 01:47:47;;;;;;;;;;;5.60;99.90;;;;;;5090065;28;19924;-73
2021/10/19 01:50:19;;;;;;;;;;;5.60;99.90;;;;;;5090251;28;19978;-73
2021/10/19 01:52:51;;;;;;;;;;;5.50;99.90;;;;;;5090245;28;19928;-73
2021/10/19 01:55:18;;;;;;;;;;;5.40;99.90;;;;;;5089871;28;19924;-73
2021/10/19 01:57:45;;;;;;;;;;;5.40;99.90;;;;;;5090211;28;19928;-73
2021/10/19 02:00:12;;;;;;;;;;;5.40;99.90;;;;;;5090295;28;19924;-73
2021/10/19 02:02:44;;;;;;;;;;;5.40;99.90;;;;;;5090272;28;20401;-73
2021/10/19 02:05:11;;;;;;;;;;;5.40;99.90;;;;;;5089750;28;19947;-73
2021/10/19 02:07:39;;;;;;;;;;;5.30;99.90;;;;;;5090207;28;19928;-73
2021/10/19 02:10:11;;;;;;;;;;;5.20;99.90;;;;;;5090226;28;19924;-73
2021/10/19 02:12:43;;;;;;;;;;;5.20;99.90;;;;;;5090140;28;19924;-73
2021/10/19 02:15:15;;;;;;;;;;;5.20;99.90;;;;;;5089641;28;19935;-73
2021/10/19 02:17:42;;;;;;;;;;;5.20;99.90;;;;;;5089900;28;19931;-73
2021/10/19 02:20:14;;;;;;;;;;;5.20;99.90;;;;;;5090284;28;19924;-73
2021/10/19 02:22:46;;;;;;;;;;;5.20;99.90;;;;;;5089871;28;19928;-73
2021/10/19 02:25:12;;;;;;;;;;;5.20;99.90;;;;;;5089423;28;20010;-73
2021/10/19 02:27:39;;;;;;;;;;;5.10;99.90;;;;;;5089892;28;19924;-73
2021/10/19 02:30:07;;;;;;;;;;;5.20;99.90;;;;;;5089929;28;19924;-73
2021/10/19 02:32:40;;;;;;;;;;;5.20;99.90;;;;;;5089874;28;19924;-73
2021/10/19 02:35:13;;;;;;;;;;;5.20;99.90;;;;;;5073607;28;19931;-73
2021/10/19 02:37:40;;;;;;;;;;;5.10;99.90;;;;;;5089840;28;20311;-73
2021/10/19 02:40:15;;;;;;;;;;;5.10;99.90;;;;;;5089724;28;19924;-73
2021/10/19 02:42:42;;;;;;;;;;;5.10;99.90;;;;;;5092898;28;19924;-73
2021/10/19 02:45:09;;;;;;;;;;;5.10;99.90;;;;;;5093188;28;19924;-73
2021/10/19 02:47:36;;;;;;;;;;;5.10;99.90;;;;;;5093288;28;19928;-73
2021/10/19 02:50:10;;;;;;;;;;;5.10;99.90;;;;;;5093395;28;20398;-73
2021/10/19 02:52:37;;;;;;;;;;;5.00;99.90;;;;;;5093497;28;20302;-73
2021/10/19 02:55:08;;;;;;;;;;;4.80;99.90;;;;;;5092835;28;19924;-73
2021/10/19 02:57:40;;;;;;;;;;;4.70;99.90;;;;;;5093199;28;19923;-73
2021/10/19 03:00:12;;;;;;;;;;;4.60;99.90;;;;;;5093506;28;20316;-73
2021/10/19 03:02:44;;;;;;;;;;;4.50;99.90;;;;;;5094313;28;19924;-73
2021/10/19 03:05:11;;;;;;;;;;;4.60;99.90;;;;;;5092638;28;19924;-73
2021/10/19 03:07:42;;;;;;;;;;;4.60;99.90;;;;;;5093099;28;20019;-73
2021/10/19 03:10:09;;;;;;;;;;;4.70;99.90;;;;;;5094248;28;20416;-73
2021/10/19 03:12:41;;;;;;;;;;;4.70;99.90;;;;;;5094134;28;19931;-73
2021/10/19 03:15:13;;;;;;;;;;;4.80;99.90;;;;;;5092505;28;20294;-73
2021/10/19 03:17:40;;;;;;;;;;;4.80;99.90;;;;;;5093050;28;19924;-73
2021/10/19 03:20:07;;;;;;;;;;;4.80;99.90;;;;;;5094010;28;19928;-73
2021/10/19 03:22:33;;;;;;;;;;;4.80;99.90;;;;;;5092813;28;19931;-73
2021/10/19 03:25:00;;;;;;;;;;;4.90;99.90;;;;;;5092082;28;19931;-73
2021/10/19 03:27:27;;;;;;;;;;;4.90;99.90;;;;;;5093853;28;19930;-73
2021/10/19 03:29:54;;;;;;;;;;;4.80;99.90;;;;;;5092589;28;20375;-73
2021/10/19 03:32:26;;;;;;;;;;;4.90;99.90;;;;;;5092565;28;19928;-73
2021/10/19 03:34:53;;;;;;;;;;;4.80;99.90;;;;;;5075389;28;19973;-73
2021/10/19 03:37:25;;;;;;;;;;;4.90;99.90;;;;;;5092585;28;19928;-73
2021/10/19 03:39:52;;;;;;;;;;;4.90;99.90;;;;;;5092588;28;19924;-73
2021/10/19 03:42:24;;;;;;;;;;;4.90;99.90;;;;;;5092385;28;19973;-73
2021/10/19 03:44:51;;;;;;;;;;;4.90;99.90;;;;;;5091836;28;19924;-73
2021/10/19 03:47:17;;;;;;;;;;;4.90;99.90;;;;;;5092249;28;20424;-73
2021/10/19 03:49:44;;;;;;;;;;;4.80;99.90;;;;;;5092147;28;19924;-73
2021/10/19 03:52:11;;;;;;;;;;;4.80;99.90;;;;;;5074787;28;19973;-73
2021/10/19 03:54:43;;;;;;;;;;;4.80;99.90;;;;;;5091232;28;19924;-73
2021/10/19 03:57:10;;;;;;;;;;;4.70;99.90;;;;;;5091612;28;19935;-73
2021/10/19 03:59:37;;;;;;;;;;;4.70;99.90;;;;;;5091568;28;19924;-73
2021/10/19 04:02:08;;;;;;;;;;;4.60;99.90;;;;;;5091128;28;19928;-72
2021/10/19 04:04:36;;;;;;;;;;;4.70;99.90;;;;;;5091112;28;19924;-73
2021/10/19 04:07:10;;;;;;;;;;;4.70;99.90;;;;;;5091375;28;19931;-74
2021/10/19 04:09:37;;;;;;;;;;;4.70;99.90;;;;;;5092890;28;19925;-73
2021/10/19 04:12:04;;;;;;;;;;;4.70;99.90;;;;;;5076765;28;19925;-75
2021/10/19 04:14:31;;;;;;;;;;;4.70;99.90;;;;;;5087207;28;19928;-73
2021/10/19 04:16:58;;;;;;;;;;;4.70;99.90;;;;;;5075455;28;20011;-73
2021/10/19 04:19:25;;;;;;;;;;;4.70;99.90;;;;;;5072114;28;19979;-73
2021/10/19 04:21:51;;;;;;;;;;;4.60;99.90;;;;;;5069649;28;19929;-73
2021/10/19 04:24:23;;;;;;;;;;;4.70;99.90;;;;;;5070333;28;19925;-74
2021/10/19 04:26:50;;;;;;;;;;;4.70;99.90;;;;;;5059068;28;20357;-73
2021/10/19 04:29:17;;;;;;;;;;;4.80;99.90;;;;;;5070305;28;19935;-77
2021/10/19 04:31:49;;;;;;;;;;;4.80;99.90;;;;;;5054421;28;19925;-73
2021/10/19 04:34:16;;;;;;;;;;;4.90;99.90;;;;;;5070033;28;20442;-73
2021/10/19 04:36:48;;;;;;;;;;;4.90;99.90;;;;;;5070913;28;19924;-73
2021/10/19 04:39:19;;;;;;;;;;;4.90;99.90;;;;;;5068276;28;19924;-73
2021/10/19 04:41:51;;;;;;;;;;;5.00;99.90;;;;;;5069648;28;20300;-73
2021/10/19 04:44:23;;;;;;;;;;;5.00;99.90;;;;;;5110798;27;20145;-74
2021/10/19 04:46:55;;;;;;;;;;;5.00;99.90;;;;;;5102855;27;19924;-73
2021/10/19 04:49:21;;;;;;;;;;;5.10;99.90;;;;;;5085207;28;19928;-73
2021/10/19 04:51:48;;;;;;;;;;;5.10;99.90;;;;;;5090545;28;20014;-74
2021/10/19 04:54:20;;;;;;;;;;;5.10;99.90;;;;;;5089506;28;19934;-74
2021/10/19 04:56:52;;;;;;;;;;;5.10;99.90;;;;;;5091714;28;20294;-73
2021/10/19 04:59:18;;;;;;;;;;;5.20;99.90;;;;;;5090830;28;20383;-73
2021/10/19 05:01:50;;;;;;;;;;;5.20;99.90;;;;;;5090055;28;19930;-73
2021/10/19 05:04:21;;;;;;;;;;;5.20;99.90;;;;;;5090172;28;19924;-73
2021/10/19 05:06:48;;;;;;;;;;;5.20;99.90;;;;;;5089682;28;19950;-73
2021/10/19 05:09:15;;;;;;;;;;;5.20;99.90;;;;;;5090959;28;20018;-73
2021/10/19 05:11:46;;;;;;;;;;;5.20;99.90;;;;;;5089672;28;19932;-73
2021/10/19 05:14:13;;;;;;;;;;;5.30;99.90;;;;;;5089140;28;19924;-73
2021/10/19 05:16:45;;;;;;;;;;;5.30;99.90;;;;;;5090117;28;19924;-73
2021/10/19 05:19:17;;;;;;;;;;;5.30;99.90;;;;;;5089601;28;19928;-73
2021/10/19 05:21:48;;;;;;;;;;;5.30;99.90;;;;;;5089563;28;20454;-73
2021/10/19 05:24:20;;;;;;;;;;;5.30;99.90;;;;;;5089344;28;19930;-74
2021/10/19 05:26:47;;;;;;;;;;;5.30;99.90;;;;;;5089568;28;19928;-73
2021/10/19 05:29:15;;;;;;;;;;;5.30;99.90;;;;;;5089694;28;19958;-73
2021/10/19 05:31:41;;;;;;;;;;;5.40;99.90;;;;;;5123299;27;19924;-73
2021/10/19 05:34:08;;;;;;;;;;;5.40;99.90;;;;;;5090490;28;20023;-73
2021/10/19 05:36:40;;;;;;;;;;;5.40;99.90;;;;;;5089553;28;19924;-73
2021/10/19 05:39:06;;;;;;;;;;;5.50;99.90;;;;;;5087062;28;20011;-73
2021/10/19 05:41:38;;;;;;;;;;;5.40;99.90;;;;;;5069630;28;20371;-73
2021/10/19 05:44:10;;;;;;;;;;;5.50;99.90;;;;;;5045863;28;20402;-73
2021/10/19 05:46:42;;;;;;;;;;;5.50;99.90;;;;;;5060475;28;19928;-73
2021/10/19 05:49:13;;;;;;;;;;;5.50;99.90;;;;;;5049962;28;20269;-73
2021/10/19 05:51:40;;;;;;;;;;;5.60;99.90;;;;;;5066484;28;19948;-74
2021/10/19 05:54:13;;;;;;;;;;;5.60;99.90;;;;;;5050225;28;19939;-74
2021/10/19 05:56:40;;;;;;;;;;;5.60;99.90;;;;;;5089372;28;20454;-73
2021/10/19 05:59:07;;;;;;;;;;;5.60;99.90;;;;;;5069055;28;20011;-73
2021/10/19 06:01:39;;;;;;;;;;;5.60;99.90;;;;;;5056176;28;19929;-73
2021/10/19 06:04:10;;;;;;;;;;;5.60;99.90;;;;;;5069034;28;19924;-73
2021/10/19 06:06:52;;;;;;;;;;;5.80;99.90;;;;;;5069951;28;19925;-73
2021/10/19 06:09:24;;;;;;;;;;;5.90;99.90;;;;;;5069876;28;19924;-73
2021/10/19 06:11:53;;;;;;;;;;;5.90;99.90;;;;;;5062830;28;19935;-75
2021/10/19 06:14:20;;;;;;;;;;;5.90;99.90;;;;;;5061743;28;20322;-73
2021/10/19 06:16:52;;;;;;;;;;;5.80;99.90;;;;;;5060290;28;19936;-73
2021/10/19 06:19:24;;;;;;;;;;;5.80;99.90;;;;;;5089330;28;20556;-73
2021/10/19 06:21:51;;;;;;;;;;;5.80;99.90;;;;;;5066619;28;19933;-73
2021/10/19 06:24:18;;;;;;;;;;;5.80;99.90;;;;;;5073096;28;19925;-73
2021/10/19 06:26:45;;;;;;;;;;;5.80;99.90;;;;;;5069996;28;19970;-73
2021/10/19 06:29:17;;;;;;;;;;;5.90;99.90;;;;;;5067600;28;19958;-73
2021/10/19 06:31:48;;;;;;;;;;;5.90;99.90;;;;;;5098710;28;19924;-73
2021/10/19 06:34:20;;;;;;;;;;;5.90;99.90;;;;;;5083961;28;20330;-73
2021/10/19 06:36:52;;;;;;;;;;;6.00;99.90;;;;;;5070152;28;19929;-73
2021/10/19 06:39:24;;;;;;;;;;;6.00;99.90;;;;;;5071950;28;19925;-73
2021/10/19 06:41:55;;;;;;;;;;;6.10;99.90;;;;;;5084318;28;20349;-73
2021/10/19 06:44:27;;;;;;;;;;;6.10;99.90;;;;;;5063729;28;19939;-73
2021/10/19 06:46:59;;;;;;;;;;;6.20;99.90;;;;;;5072695;28;19924;-73
2021/10/19 06:49:26;;;;;;;;;;;6.20;99.90;;;;;;5066993;28;19924;-73
2021/10/19 06:51:52;;;;;;;;;;;6.30;99.90;;;;;;5068840;28;19925;-73
2021/10/19 06:54:24;;;;;;;;;;;6.30;99.90;;;;;;5106535;28;20453;-73
2021/10/19 06:56:56;;;;;;;;;;;6.40;99.90;;;;;;5090689;28;19931;-73
2021/10/19 06:59:27;;;;;;;;;;;6.40;99.90;;;;;;5090583;28;19994;-73
2021/10/19 07:01:54;;;;;;;;;;;6.50;99.90;;;;;;5089950;28;19932;-73
2021/10/19 07:04:21;;;;;;;;;;;6.50;99.90;;;;;;5068246;28;19935;-73
2021/10/19 07:06:53;;;;;;;;;;;6.50;99.90;;;;;;5072354;28;19924;-73
2021/10/19 07:09:24;;;;;;;;;;;6.60;99.90;;;;;;5072427;28;20390;-73
2021/10/19 07:11:51;;;;;;;;;;;6.70;99.90;;;;;;5104185;28;19928;-73
2021/10/19 07:14:23;;;;;;;;;;;6.70;99.90;;;;;;5073202;28;19978;-73
2021/10/19 07:16:51;;;;;;;;;;;6.80;99.90;;;;;;5072616;28;20336;-73
2021/10/19 07:19:18;;;;;;;;;;;6.80;99.90;;;;;;5072751;28;19928;-73
2021/10/19 07:21:50;;;;;;;;;;;6.90;99.90;;;;;;5090141;28;19925;-73
2021/10/19 07:24:16;;;;;;;;;;;7.00;99.90;;;;;;5056092;28;20299;-74
2021/10/19 07:26:43;;;;;;;;;;;7.10;99.90;;;;;;5082716;28;19935;-73
2021/10/19 07:29:15;;;;;;;;;;;7.10;99.90;;;;;;5067459;28;19924;-73
2021/10/19 07:31:47;;;;;;;;;;;7.20;99.90;;;;;;5052435;28;20027;-73
2021/10/19 07:34:19;;;;;;;;;;;7.30;99.90;;;;;;5050067;28;20280;-73
2021/10/19 07:36:53;;;;;;;;;;;7.40;99.90;;;;;;5068571;28;19928;-73
2021/10/19 07:39:20;;;;;;;;;;;7.40;99.90;;;;;;5075758;28;19931;-73
2021/10/19 07:41:51;;;;;;;;;;;7.50;99.90;;;;;;5043077;28;19929;-73
2021/10/19 07:44:20;;;;;;;;;;;7.50;99.90;;;;;;5097412;28;19939;-73
2021/10/19 07:46:47;;;;;;;;;;;7.60;99.90;;;;;;5071317;28;19925;-73
2021/10/19 07:49:19;;;;;;;;;;;7.60;99.90;;;;;;5089268;28;19931;-73
2021/10/19 07:51:46;;;;;;;;;;;7.70;99.90;;;;;;5071935;28;19924;-74
2021/10/19 07:54:20;;;;;;;;;;;7.80;99.90;;;;;;5071806;28;20341;-73
2021/10/19 07:56:47;;;;;;;;;;;7.90;99.90;;;;;;5072935;28;19978;-73
2021/10/19 07:59:19;;;;;;;;;;;7.90;99.90;;;;;;5051095;28;19929;-73
2021/10/19 08:01:51;;;;;;;;;;;8.00;99.90;;;;;;5062534;28;19932;-73
2021/10/19 08:04:22;;;;;;;;;;;8.10;99.90;;;;;;5071394;28;19925;-73
2021/10/19 08:06:49;;;;;;;;;;;8.20;99.90;;;;;;5071413;28;20360;-73
2021/10/19 08:09:16;;;;;;;;;;;8.20;99.90;;;;;;5071183;28;19925;-73
2021/10/19 08:11:48;;;;;;;;;;;8.30;99.90;;;;;;5066615;28;19928;-73
2021/10/19 08:14:20;;;;;;;;;;;8.40;99.90;;;;;;5070748;28;19931;-73
2021/10/19 08:16:51;;;;;;;;;;;8.50;99.90;;;;;;5071510;28;19924;-73
2021/10/19 08:19:23;;;;;;;;;;;8.60;99.90;;;;;;5068539;28;19931;-73
2021/10/19 08:21:55;;;;;;;;;;;8.60;99.90;;;;;;5072582;28;19925;-73
2021/10/19 08:24:27;;;;;;;;;;;8.70;99.90;;;;;;5070766;28;19924;-73
2021/10/19 08:26:58;;;;;;;;;;;8.70;99.90;;;;;;5072888;28;19943;-73
2021/10/19 08:29:30;;;;;;;;;;;8.70;99.90;;;;;;5071157;28;19931;-73
2021/10/19 08:32:04;;;;;;;;;;;8.80;99.90;;;;;;5053327;28;23299;-73
2021/10/19 08:34:31;;;;;;;;;;;8.80;99.90;;;;;;5071122;28;19957;-73
2021/10/19 08:37:02;;;;;;;;;;;8.80;99.90;;;;;;5055225;28;19932;-73
2021/10/19 08:39:34;;;;;;;;;;;8.80;99.90;;;;;;5070840;28;19928;-73
2021/10/19 08:42:06;;;;;;;;;;;8.90;99.90;;;;;;5071906;28;19924;-73
2021/10/19 08:44:38;;;;;;;;;;;8.90;99.90;;;;;;5070930;28;20315;-73
2021/10/19 08:47:04;;;;;;;;;;;9.00;99.90;;;;;;5061321;28;19924;-73
2021/10/19 08:49:36;;;;;;;;;;;9.10;99.90;;;;;;5056055;28;19962;-73
2021/10/19 08:52:08;;;;;;;;;;;9.10;99.90;;;;;;5071563;28;19928;-73
2021/10/19 08:54:36;;;;;;;;;;;9.30;99.90;;;;;;5071395;28;19924;-73
2021/10/19 08:57:15;;;;;;;;;;;9.40;99.90;;;;;;5053655;28;19925;-73
2021/10/19 08:59:48;;;;;;;;;;;9.60;99.90;;;;;;5067346;28;19925;-73
2021/10/19 09:02:33;;;;;;;;;;;9.70;99.90;;;;;;5101316;28;19931;-73
2021/10/19 09:04:59;;;;;;;;;;;9.80;99.90;;;;;;5068125;28;19970;-73
2021/10/19 09:07:27;;;;;;;;;;;9.80;99.90;;;;;;5076837;28;20607;-73
2021/10/19 09:09:53;;;;;;;;;;;9.80;99.90;;;;;;5071330;28;20302;-73
2021/10/19 09:12:25;;;;;;;;;;;9.90;99.90;;;;;;5060959;28;20279;-73
2021/10/19 09:15:04;;;;;;;;;;;9.90;99.90;;;;;;5070839;28;19943;-73
2021/10/19 09:17:38;;;;;;;;;;;9.90;99.90;;;;;;5053784;28;19939;-73
2021/10/19 09:20:16;;;;;;;;;;;9.90;99.90;;;;;;5069675;28;19929;-73
2021/10/19 09:22:55;;;;;;;;;;;10.00;99.90;;;;;;5072161;28;20357;-73
2021/10/19 09:25:26;;;;;;;;;;;10.00;99.90;;;;;;5066653;28;20343;-73
2021/10/19 09:28:00;;;;;;;;;;;10.00;99.90;;;;;;5085790;28;19930;-73
2021/10/19 09:30:32;;;;;;;;;;;10.10;99.90;;;;;;5056428;28;19933;-73
2021/10/19 09:33:06;;;;;;;;;;;10.10;99.90;;;;;;5066943;28;20492;-73
2021/10/19 09:35:38;;;;;;;;;;;10.20;99.90;;;;;;5095037;28;19931;-73
2021/10/19 09:38:12;;;;;;;;;;;10.20;99.90;;;;;;5051340;28;19928;-73
2021/10/19 09:40:40;;;;;;;;;;;10.30;99.90;;;;;;5052049;28;19932;-73
2021/10/19 09:43:08;;;;;;;;;;;10.30;99.90;;;;;;5053155;28;19940;-73
2021/10/19 09:45:35;;;;;;;;;;;10.40;99.90;;;;;;5097199;28;19925;-73
2021/10/19 09:48:02;;;;;;;;;;;10.40;99.90;;;;;;5070723;28;19974;-73
2021/10/19 09:50:29;;;;;;;;;;;10.50;99.90;;;;;;5074550;28;20379;-73
2021/10/19 09:52:56;;;;;;;;;;;10.60;99.90;;;;;;5075980;28;19933;-73
2021/10/19 09:55:23;;;;;;;;;;;10.60;99.90;;;;;;5074516;28;19929;-73
2021/10/19 09:57:52;;;;;;;;;;;10.70;99.90;;;;;;5075700;28;19932;-73
2021/10/19 10:00:20;;;;;;;;;;;10.80;99.90;;;;;;5074683;28;19924;-73
2021/10/19 10:02:47;;;;;;;;;;;10.90;99.90;;;;;;5075733;28;19939;-73
2021/10/19 10:05:19;;;;;;;;;;;11.10;99.90;;;;;;5075786;28;19950;-73
2021/10/19 10:07:47;;;;;;;;;;;11.20;99.90;;;;;;5075209;28;20386;-73
2021/10/19 10:10:16;;;;;;;;;;;11.30;99.90;;;;;;5074671;28;19924;-73
2021/10/19 10:12:49;;;;;;;;;;;11.40;99.90;;;;;;5067460;28;19932;-73
2021/10/19 10:15:25;;;;;;;;;;;11.50;99.90;;;;;;5055597;28;19925;-73
2021/10/19 10:18:00;;;;;;;;;;;11.60;99.90;;;;;;5071359;28;19947;-73
2021/10/19 10:20:32;;;;;;;;;;;11.70;99.90;;;;;;5054688;28;19929;-73
2021/10/19 10:23:10;;;;;;;;;;;11.80;99.90;;;;;;5086528;28;19932;-73
2021/10/19 10:25:38;;;;;;;;;;;11.90;99.90;;;;;;5087663;28;19951;-73
2021/10/19 10:28:11;;;;;;;;;;;11.90;99.90;;;;;;5086987;28;19924;-73
2021/10/19 10:30:45;;;;;;;;;;;12.10;99.90;;;;;;5055512;28;20383;-73
2021/10/19 10:33:12;;;;;;;;;;;12.20;99.90;;;;;;5037599;28;19935;-73
2021/10/19 10:35:43;;;;;;;;;;;12.30;99.90;;;;;;5085340;28;20028;-73
2021/10/19 10:38:15;;;;;;;;;;;12.50;99.90;;;;;;5074138;28;19938;-73
2021/10/19 10:40:45;;;;;;;;;;;12.70;99.90;;;;;;5075336;28;19931;-73
2021/10/19 10:43:21;;;;;;;;;;;12.90;99.90;;;;;;5074009;28;19935;-73
2021/10/19 10:46:07;;;;;;;;;;;13.00;99.90;;;;;;5073849;28;19946;-73
2021/10/19 10:48:39;;;;;;;;;;;13.10;99.90;;;;;;5063110;28;19925;-73
2021/10/19 10:51:12;;;;;;;;;;;13.20;99.90;;;;;;5054317;28;19975;-73
2021/10/19 10:53:45;;;;;;;;;;;13.20;99.90;;;;;;5053893;28;20387;-73
2021/10/19 10:56:17;;;;;;;;;;;13.20;99.90;;;;;;5069803;28;19925;-73
2021/10/19 11:01:32;;;;;;;;;;;13.20;99.90;;;;;;5071321;22;20295;-74
2021/10/19 11:04:05;;;;;;;;;;;13.20;99.90;;;;;;4993896;28;19934;-74
2021/10/19 11:06:33;;;;;;;;;;;13.20;99.90;;;;;;4989517;28;19926;-74
2021/10/19 11:09:11;;;;;;;;;;;13.20;99.90;;;;;;4992642;28;19934;-73
2021/10/19 11:11:44;;;;;;;;;;;13.10;99.90;;;;;;4994289;28;19941;-74
2021/10/19 11:14:12;;;;;;;;;;;13.20;99.90;;;;;;4976336;28;19929;-73
2021/10/19 11:16:39;;;;;;;;;;;13.20;99.90;;;;;;4975022;28;20380;-74
2021/10/19 11:19:14;;;;;;;;;;;13.20;99.90;;;;;;4993468;28;20347;-73
2021/10/19 11:21:50;;;;;;;;;;;13.20;99.90;;;;;;4994525;28;19926;-73
2021/10/19 11:24:23;;;;;;;;;;;13.20;99.90;;;;;;4993054;28;19995;-73
2021/10/19 11:26:50;;;;;;;;;;;13.20;99.90;;;;;;4993324;28;19925;-73
2021/10/19 11:29:17;;;;;;;;;;;13.20;99.90;;;;;;4994573;28;19949;-74
2021/10/19 11:31:44;;;;;;;;;;;13.20;99.90;;;;;;4993278;28;20021;-73
2021/10/19 11:34:16;;;;;;;;;;;13.20;99.90;;;;;;4994268;28;20335;-74
2021/10/19 11:36:48;;;;;;;;;;;13.30;99.90;;;;;;4977834;28;19926;-74
2021/10/19 11:39:20;;;;;;;;;;;13.30;99.90;;;;;;4994578;28;19926;-74
2021/10/19 11:41:56;;;;;;;;;;;13.30;99.90;;;;;;4977660;28;19972;-74
2021/10/19 11:44:29;;;;;;;;;;;13.30;99.90;;;;;;4977846;28;20323;-74
2021/10/19 11:46:57;;;;;;;;;;;13.30;99.90;;;;;;4993657;28;19930;-74
2021/10/19 11:49:24;;;;;;;;;;;13.40;99.90;;;;;;4992176;28;19930;-73
2021/10/19 11:51:51;;;;;;;;;;;13.40;99.90;;;;;;4989601;28;19926;-74
2021/10/19 11:54:19;;;;;;;;;;;13.40;99.90;;;;;;4991114;28;19937;-73
2021/10/19 11:57:12;;;;;;;;;;;13.50;99.90;;;;;;4992216;28;19972;-74
2021/10/19 11:59:43;;;;;;;;;;;13.50;99.90;;;;;;4992590;28;20295;-74
2021/10/19 12:02:10;;;;;;;;;;;13.50;99.90;;;;;;4992026;28;19933;-72
2021/10/19 12:04:43;;;;;;;;;;;13.50;99.90;;;;;;4990922;28;19933;-74
2021/10/19 12:07:13;;;;;;;;;;;13.50;99.90;;;;;;4992341;28;20423;-74
2021/10/19 12:09:41;;;;;;;;;;;13.50;99.90;;;;;;4992168;28;19995;-74
2021/10/19 12:12:08;;;;;;;;;;;13.60;99.90;;;;;;4989925;28;19933;-74
2021/10/19 12:14:41;;;;;;;;;;;13.70;99.90;;;;;;4984493;28;19925;-74
2021/10/19 12:17:08;;;;;;;;;;;13.70;99.90;;;;;;4971216;28;19926;-74
2021/10/19 12:19:40;;;;;;;;;;;13.80;99.90;;;;;;4988990;28;20399;-74
2021/10/19 12:22:08;;;;;;;;;;;13.90;99.90;;;;;;4993311;28;19926;-74
2021/10/19 12:24:36;;;;;;;;;;;14.10;99.90;;;;;;4991390;28;20376;-74
2021/10/19 12:27:05;;;;;;;;;;;14.20;99.90;;;;;;4975677;28;19926;-73
2021/10/19 12:29:36;;;;;;;;;;;14.50;99.90;;;;;;4991874;28;20399;-74
2021/10/19 12:32:09;;;;;;;;;;;14.60;99.90;;;;;;4990701;28;20396;-74
2021/10/19 12:34:38;;;;;;;;;;;14.70;99.90;;;;;;4991228;28;19925;-74
2021/10/19 12:37:10;;;;;;;;;;;14.90;99.90;;;;;;4974659;28;19959;-74
2021/10/19 12:39:43;;;;;;;;;;;15.00;99.90;;;;;;4992741;28;20281;-74
2021/10/19 12:42:15;;;;;;;;;;;15.10;99.90;;;;;;4977210;28;19926;-74
2021/10/19 12:44:47;;;;;;;;;;;15.20;99.90;;;;;;4966908;28;19968;-75
2021/10/19 12:47:19;;;;;;;;;;;15.30;99.90;;;;;;4989813;28;19937;-74
2021/10/19 12:49:46;;;;;;;;;;;15.20;99.90;;;;;;4989104;28;19933;-74
2021/10/19 12:52:17;;;;;;;;;;;15.20;99.90;;;;;;4996397;28;19925;-74
2021/10/19 12:54:44;;;;;;;;;;;15.10;99.90;;;;;;4991122;28;19929;-74
2021/10/19 12:57:16;;;;;;;;;;;15.10;99.90;;;;;;4979857;28;19926;-74
2021/10/19 12:59:48;;;;;;;;;;;15.10;99.90;;;;;;4991152;28;20589;-74
2021/10/19 13:02:15;;;;;;;;;;;15.00;99.90;;;;;;4970304;28;19926;-74
2021/10/19 13:04:46;;;;;;;;;;;15.00;99.90;;;;;;4991398;28;19926;-74
2021/10/19 13:07:18;;;;;;;;;;;15.00;99.90;;;;;;4990029;28;19926;-73
2021/10/19 13:09:51;;;;;;;;;;;14.90;99.90;;;;;;4988532;28;19926;-73
2021/10/19 13:12:23;;;;;;;;;;;14.90;99.90;;;;;;4991233;28;19926;-74
2021/10/19 13:14:49;;;;;;;;;;;14.90;99.90;;;;;;4989250;28;19941;-74
2021/10/19 13:17:16;;;;;;;;;;;14.90;99.90;;;;;;4974180;28;19927;-74
2021/10/19 13:19:48;;;;;;;;;;;14.90;99.90;;;;;;4991485;28;19926;-74
2021/10/19 13:22:20;;;;;;;;;;;14.90;99.90;;;;;;4987593;28;20392;-74
2021/10/19 13:24:52;;;;;;;;;;;14.90;99.90;;;;;;4989615;28;19934;-74
2021/10/19 13:27:22;;;;;;;;;;;14.90;99.90;;;;;;4990720;28;19940;-74
2021/10/19 13:29:49;;;;;;;;;;;14.90;99.90;;;;;;4989942;28;20447;-73
2021/10/19 13:32:16;;;;;;;;;;;14.80;99.90;;;;;;4990796;28;19980;-74
2021/10/19 13:34:43;;;;;;;;;;;14.80;99.90;;;;;;4990759;28;19933;-74
2021/10/19 13:37:16;;;;;;;;;;;14.90;99.90;;;;;;4974386;28;19926;-74
2021/10/19 13:39:42;;;;;;;;;;;14.80;99.90;;;;;;4974598;28;19925;-74
2021/10/19 13:42:16;;;;;;;;;;;14.80;99.90;;;;;;4991744;28;19925;-73
2021/10/19 13:44:48;;;;;;;;;;;14.80;99.90;;;;;;4990711;28;19926;-74
2021/10/19 13:47:15;;;;;;;;;;;14.80;99.90;;;;;;4989685;28;19933;-74
2021/10/19 13:49:46;;;;;;;;;;;14.80;99.90;;;;;;4991738;28;19929;-74
2021/10/19 13:52:19;;;;;;;;;;;14.70;99.90;;;;;;4990736;28;20380;-74
2021/10/19 13:54:50;;;;;;;;;;;14.70;99.90;;;;;;4989564;28;19925;-73
2021/10/19 13:57:22;;;;;;;;;;;14.60;99.90;;;;;;4990897;28;20312;-74
2021/10/19 13:59:49;;;;;;;;;;;14.60;99.90;;;;;;4990046;28;19933;-74
2021/10/19 14:02:16;;;;;;;;;;;14.70;99.90;;;;;;4987809;28;19926;-73
2021/10/19 14:04:48;;;;;;;;;;;14.70;99.90;;;;;;4989444;28;19934;-74
2021/10/19 14:07:19;;;;;;;;;;;14.60;99.90;;;;;;4974674;28;19984;-74
2021/10/19 14:09:51;;;;;;;;;;;14.60;99.90;;;;;;4987999;28;19926;-74
2021/10/19 14:12:23;;;;;;;;;;;14.60;99.90;;;;;;4989028;28;19926;-74
2021/10/19 14:14:50;;;;;;;;;;;14.60;99.90;;;;;;4988681;28;19929;-73
2021/10/19 14:17:22;;;;;;;;;;;14.60;99.90;;;;;;4974907;28;19925;-74
2021/10/19 14:19:49;;;;;;;;;;;14.60;99.90;;;;;;4990542;28;19926;-74
2021/10/19 14:22:16;;;;;;;;;;;14.60;99.90;;;;;;4991564;28;19972;-74
2021/10/19 14:24:48;;;;;;;;;;;14.60;99.90;;;;;;4974423;28;20004;-73
2021/10/19 14:27:20;;;;;;;;;;;14.60;99.90;;;;;;4975375;28;19929;-73
2021/10/19 14:29:50;;;;;;;;;;;14.60;99.90;;;;;;4991573;28;19932;-73
2021/10/19 14:32:17;;;;;;;;;;;14.60;99.90;;;;;;4989700;28;19932;-74
2021/10/19 14:34:49;;;;;;;;;;;14.50;99.90;;;;;;4989391;28;19925;-73
2021/10/19 14:37:16;;;;;;;;;;;14.50;99.90;;;;;;4990501;28;19925;-73
2021/10/19 14:39:44;;;;;;;;;;;14.50;99.90;;;;;;5011875;28;20447;-73
2021/10/19 14:42:11;;;;;;;;;;;14.50;99.90;;;;;;4993523;28;19933;-73
2021/10/19 14:44:39;;;;;;;;;;;14.50;99.90;;;;;;4990261;28;19936;-73